KRTN/RTN METAR and TAF weather

Enter ICAO airport designator
Station Type Date Time Source
KRTN METAR 2018/12/13 21:53 UTC NOAA

KRTN 132153Z AUTO 03015G24KT 10SM CLR 02/M15 A3017 RMK AO2 PK WND 02027/2104 SLP222 T00221150


Station Type Date Time Source
KRTN Decoded METAR 2018/12/13 21:53 UTC NOAA

Raton, Raton Municipal \ Crews Field Airport, NM, United States (KRTN) 36-44-31N 104-39-28W 1939M
Dec 13, 2018 - 04:53 PM EST / 2018.12.13 2153 UTC
Wind: from the NNE (030 degrees) at 17 MPH (15 KT) gusting to 28 MPH (24 KT):0
Visibility: 10 mile(s):0
Sky conditions: clear
Temperature: 36.0 F (2.2 C)
Dew Point: 5.0 F (-15.0 C)
Relative Humidity: 26%
Pressure (altimeter): 30.17 in. Hg (1021 hPa)
ob: KRTN 132153Z AUTO 03015G24KT 10SM CLR 02/M15 A3017 RMK AO2 PK WND 02027/2104 SLP222 T00221150
cycle: 22

Station Type Date Time Source
KRTN TAF UTC NOAA

Error!


Example: see airport list